createdAt,value
2019-04-27T00:02:29.550Z,15.17
2019-04-27T00:05:32.332Z,11.57
2019-04-27T00:08:14.962Z,11.80
2019-04-27T00:11:08.670Z,11.87
2019-04-27T00:13:40.743Z,11.33
2019-04-27T00:16:40.383Z,11.17
2019-04-27T00:19:39.636Z,12.60
2019-04-27T00:22:23.036Z,12.63
2019-04-27T00:24:55.170Z,11.87
2019-04-27T00:27:26.972Z,11.37
2019-04-27T00:29:59.009Z,12.17
2019-04-27T00:32:30.662Z,10.50
2019-04-27T00:35:03.738Z,12.83
2019-04-27T00:37:56.294Z,11.57
2019-04-27T00:40:36.537Z,11.40
2019-04-27T00:43:08.400Z,11.90
2019-04-27T00:45:40.315Z,11.73
2019-04-27T00:48:13.443Z,11.70
2019-04-27T00:50:45.391Z,32.17
2019-04-27T00:53:17.412Z,14.40
2019-04-27T00:56:07.452Z,11.43
2019-04-27T00:59:18.692Z,12.30
2019-04-27T01:02:06.574Z,11.37
2019-04-27T01:04:38.273Z,12.00
2019-04-27T01:07:10.617Z,9.73
2019-04-27T01:09:42.940Z,11.07
2019-04-27T01:12:15.262Z,10.43
2019-04-27T01:14:46.992Z,11.17
2019-04-27T01:17:19.008Z,11.20
2019-04-27T01:19:50.982Z,11.10
2019-04-27T01:22:22.804Z,11.33
2019-04-27T01:24:54.654Z,12.03
2019-04-27T01:27:49.420Z,10.57
2019-04-27T01:30:30.081Z,10.97
2019-04-27T01:33:01.911Z,10.33
2019-04-27T01:35:33.808Z,9.83
2019-04-27T01:38:05.625Z,10.80
2019-04-27T01:40:38.568Z,10.23
2019-04-27T01:43:10.411Z,9.93
2019-04-27T01:45:42.262Z,10.20
2019-04-27T01:48:22.946Z,9.97
2019-04-27T01:50:49.120Z,11.17
2019-04-27T01:53:21.438Z,10.03
2019-04-27T01:55:53.158Z,10.10
2019-04-27T01:58:24.755Z,9.63
2019-04-27T02:01:18.692Z,9.20
2019-04-27T02:04:11.496Z,10.00
2019-04-27T02:06:43.550Z,10.53
2019-04-27T02:09:18.802Z,9.93
2019-04-27T02:11:50.946Z,8.97
2019-04-27T02:14:22.839Z,10.30
2019-04-27T02:16:54.704Z,11.57
2019-04-27T02:19:26.484Z,10.03
2019-04-27T02:21:59.776Z,10.83
2019-04-27T02:24:31.658Z,9.67
2019-04-27T02:27:03.352Z,10.13
2019-04-27T02:29:59.181Z,9.93
2019-04-27T02:32:52.252Z,9.97
2019-04-27T02:35:24.129Z,10.00
2019-04-27T02:37:55.945Z,10.07
2019-04-27T02:40:59.823Z,9.30
2019-04-27T02:43:54.059Z,10.37
2019-04-27T02:46:26.134Z,9.43
2019-04-27T02:49:03.541Z,8.30
2019-04-27T02:51:59.483Z,9.83
2019-04-27T02:54:31.670Z,9.00
2019-04-27T02:57:03.515Z,10.47
2019-04-27T02:59:35.114Z,8.67
2019-04-27T03:02:22.611Z,9.73
2019-04-27T03:04:54.485Z,12.20
2019-04-27T03:07:26.336Z,10.40
2019-04-27T03:09:59.631Z,9.70
2019-04-27T03:12:37.121Z,12.00
2019-04-27T03:15:35.451Z,10.40
2019-04-27T03:18:29.707Z,9.80
2019-04-27T03:21:10.381Z,9.87
2019-04-27T03:23:42.538Z,8.93
2019-04-27T03:26:46.054Z,10.80
2019-04-27T03:29:20.176Z,9.67
2019-04-27T03:31:54.109Z,10.10
2019-04-27T03:34:25.089Z,10.03
2019-04-27T03:36:56.793Z,9.83
2019-04-27T03:39:29.989Z,9.57
2019-04-27T03:42:02.116Z,10.50
2019-04-27T03:44:33.943Z,9.77
2019-04-27T03:47:05.873Z,9.03
2019-04-27T03:49:41.220Z,11.33
2019-04-27T03:52:20.701Z,9.50
2019-04-27T03:55:00.246Z,9.97
2019-04-27T03:57:56.473Z,9.33
2019-04-27T04:00:30.059Z,11.00
2019-04-27T04:03:02.191Z,9.73
2019-04-27T04:05:34.302Z,9.87
2019-04-27T04:08:06.199Z,9.00
2019-04-27T04:10:41.854Z,9.70
2019-04-27T04:13:22.445Z,9.43
2019-04-27T04:16:07.331Z,10.13
2019-04-27T04:19:00.429Z,8.83
2019-04-27T04:21:31.337Z,9.90
2019-04-27T04:24:03.442Z,9.93
2019-04-27T04:26:35.224Z,10.43
2019-04-27T04:29:07.208Z,10.10
2019-04-27T04:31:40.568Z,9.93
2019-04-27T04:34:12.487Z,11.87
2019-04-27T04:36:44.375Z,9.33
2019-04-27T04:39:16.344Z,9.50
2019-04-27T04:42:04.542Z,10.73
2019-04-27T04:44:55.753Z,8.53
2019-04-27T04:47:40.715Z,8.90
2019-04-27T04:50:15.097Z,9.03
2019-04-27T04:52:46.966Z,9.30
2019-04-27T04:55:20.372Z,9.83
2019-04-27T04:57:52.734Z,8.20
2019-04-27T05:00:24.518Z,8.63
2019-04-27T05:02:56.475Z,8.93
2019-04-27T05:05:29.296Z,9.97
2019-04-27T05:08:01.345Z,8.57
2019-04-27T05:10:33.291Z,8.77
2019-04-27T05:13:05.145Z,8.40
2019-04-27T05:15:37.119Z,8.40
2019-04-27T05:18:09.100Z,8.67
2019-04-27T05:20:52.107Z,9.23
2019-04-27T05:23:24.014Z,8.87
2019-04-27T05:25:55.927Z,8.30
2019-04-27T05:28:29.637Z,8.40
2019-04-27T05:31:01.463Z,8.63
2019-04-27T05:33:33.400Z,10.00
2019-04-27T05:36:05.461Z,9.03
2019-04-27T05:38:41.929Z,8.33
2019-04-27T05:41:18.729Z,9.27
2019-04-27T05:44:12.702Z,10.20
2019-04-27T05:47:13.344Z,9.20
2019-04-27T05:49:49.323Z,8.93
2019-04-27T05:52:31.957Z,7.97
2019-04-27T05:55:04.368Z,8.80
2019-04-27T05:57:36.170Z,10.13
2019-04-27T06:00:10.241Z,9.00
2019-04-27T06:02:42.417Z,10.90
2019-04-27T06:05:14.381Z,11.33
2019-04-27T06:07:46.298Z,9.73
2019-04-27T06:10:19.832Z,10.37
2019-04-27T06:12:52.086Z,11.40
2019-04-27T06:15:23.837Z,11.67
2019-04-27T06:17:55.586Z,11.30
2019-04-27T06:20:28.571Z,13.00
2019-04-27T06:23:01.066Z,14.57
2019-04-27T06:25:32.885Z,15.83
2019-04-27T06:28:04.816Z,14.53
2019-04-27T06:30:36.735Z,15.60
2019-04-27T06:33:09.424Z,17.60
2019-04-27T06:35:41.400Z,18.90
2019-04-27T06:38:13.671Z,17.60
2019-04-27T06:40:45.738Z,19.00
2019-04-27T06:43:18.909Z,20.43
2019-04-27T06:45:51.145Z,20.60
2019-04-27T06:48:23.296Z,20.90
2019-04-27T06:51:02.763Z,19.90
2019-04-27T06:53:29.192Z,19.30
2019-04-27T06:56:01.083Z,20.83
2019-04-27T06:58:33.219Z,21.00
2019-04-27T07:01:05.259Z,22.73
2019-04-27T07:03:37.200Z,24.30
2019-04-27T07:06:09.211Z,24.37
2019-04-27T07:08:42.163Z,22.37
2019-04-27T07:11:14.145Z,23.67
2019-04-27T07:13:46.096Z,25.20
2019-04-27T07:16:19.547Z,24.40
2019-04-27T07:18:51.870Z,25.13
2019-04-27T07:21:24.891Z,22.13
2019-04-27T07:24:01.627Z,26.17
2019-04-27T07:26:41.386Z,25.10
2019-04-27T07:29:13.358Z,27.47
2019-04-27T07:31:45.432Z,25.47
2019-04-27T07:34:18.991Z,25.30
2019-04-27T07:36:52.786Z,24.00
2019-04-27T07:39:24.548Z,26.17
2019-04-27T07:41:58.491Z,24.63
2019-04-27T07:44:39.228Z,25.20
2019-04-27T07:47:26.048Z,26.77
2019-04-27T07:49:59.291Z,25.37
2019-04-27T07:52:31.844Z,26.10
2019-04-27T07:55:03.705Z,25.53
2019-04-27T07:57:35.636Z,26.20
2019-04-27T08:00:09.362Z,24.83
2019-04-27T08:02:41.715Z,24.80
2019-04-27T08:05:13.850Z,27.03
2019-04-27T08:07:46.058Z,25.57
2019-04-27T08:10:19.371Z,25.23
2019-04-27T08:12:51.940Z,26.03
2019-04-27T08:15:24.018Z,24.10
2019-04-27T08:17:55.904Z,25.27
2019-04-27T08:20:29.402Z,25.53
2019-04-27T08:23:02.057Z,24.83
2019-04-27T08:25:34.100Z,28.07
2019-04-27T08:28:30.574Z,23.97
2019-04-27T08:31:12.122Z,24.83
2019-04-27T08:33:44.293Z,24.23
2019-04-27T08:36:16.351Z,24.13
2019-04-27T08:38:48.950Z,23.77
2019-04-27T08:41:21.284Z,24.70
2019-04-27T08:43:54.046Z,25.87
2019-04-27T08:46:26.130Z,24.37
2019-04-27T08:48:58.751Z,23.40
2019-04-27T08:51:30.764Z,23.53
2019-04-27T08:54:10.490Z,24.53
2019-04-27T08:56:42.363Z,23.83
2019-04-27T08:59:14.575Z,24.57
2019-04-27T09:01:46.558Z,25.13
2019-04-27T09:04:20.058Z,22.40
2019-04-27T09:06:59.534Z,20.87
2019-04-27T09:09:41.218Z,23.10
2019-04-27T09:12:32.354Z,22.97
2019-04-27T09:15:12.807Z,21.30
2019-04-27T09:17:49.776Z,18.20
2019-04-27T09:20:25.845Z,19.83
2019-04-27T09:22:59.159Z,22.30
2019-04-27T09:25:31.759Z,24.37
2019-04-27T09:28:03.707Z,23.30
2019-04-27T09:30:36.148Z,22.83
2019-04-27T09:33:08.596Z,23.73
2019-04-27T09:35:40.737Z,22.93
2019-04-27T09:38:12.944Z,23.47
2019-04-27T09:40:46.418Z,22.77
2019-04-27T09:43:18.675Z,22.60
2019-04-27T09:45:50.814Z,22.50
2019-04-27T09:48:22.764Z,22.30
2019-04-27T09:50:55.967Z,22.70
2019-04-27T09:53:28.274Z,22.67
2019-04-27T09:56:00.336Z,22.03
2019-04-27T09:58:33.284Z,20.90
2019-04-27T10:01:06.628Z,20.27
2019-04-27T10:03:38.851Z,21.57
2019-04-27T10:06:10.962Z,21.60
2019-04-27T10:08:43.221Z,20.07
2019-04-27T10:11:16.253Z,20.77
2019-04-27T10:13:48.233Z,23.63
2019-04-27T10:16:20.388Z,20.33
2019-04-27T10:18:52.358Z,19.73
2019-04-27T10:21:26.301Z,20.97
2019-04-27T10:23:57.755Z,19.97
2019-04-27T10:26:30.041Z,21.10
2019-04-27T10:29:01.960Z,20.23
2019-04-27T10:31:34.184Z,20.30
2019-04-27T10:34:06.386Z,19.60
2019-04-27T10:36:42.954Z,20.17
2019-04-27T10:39:16.921Z,19.30
2019-04-27T10:41:57.096Z,20.73
2019-04-27T10:44:36.864Z,19.87
2019-04-27T10:47:08.777Z,20.47
2019-04-27T10:49:40.775Z,24.27
2019-04-27T10:52:12.856Z,20.70
2019-04-27T10:54:44.923Z,20.33
2019-04-27T10:57:17.046Z,20.93
2019-04-27T10:59:48.804Z,20.57
2019-04-27T11:02:21.032Z,20.13
2019-04-27T11:05:09.280Z,19.07
2019-04-27T11:07:41.898Z,20.77
2019-04-27T11:10:16.189Z,18.03
2019-04-27T11:12:48.099Z,18.37
2019-04-27T11:15:20.682Z,19.90
2019-04-27T11:17:52.724Z,19.90
2019-04-27T11:20:27.456Z,17.53
2019-04-27T11:23:07.214Z,20.07
2019-04-27T11:25:33.618Z,17.57
2019-04-27T11:28:05.830Z,22.43
2019-04-27T11:30:38.546Z,18.60
2019-04-27T11:33:10.423Z,18.50
2019-04-27T11:36:15.396Z,19.87
2019-04-27T11:38:48.695Z,19.13
2019-04-27T11:41:21.036Z,18.87
2019-04-27T11:43:53.023Z,19.60
2019-04-27T11:46:26.610Z,17.27
2019-04-27T11:48:58.938Z,19.73
2019-04-27T11:51:31.473Z,19.30
2019-04-27T11:54:03.500Z,18.77
2019-04-27T11:56:36.192Z,18.47
2019-04-27T11:59:08.361Z,19.30
2019-04-27T12:01:40.639Z,16.87
2019-04-27T12:04:12.849Z,17.20
2019-04-27T12:06:46.237Z,19.53
2019-04-27T12:09:18.796Z,17.57
2019-04-27T12:11:50.794Z,16.90
2019-04-27T12:14:22.854Z,18.23
2019-04-27T12:16:56.121Z,20.10
2019-04-27T12:19:28.206Z,20.77
2019-04-27T12:22:00.248Z,17.70
2019-04-27T12:24:39.680Z,17.10
2019-04-27T12:27:36.126Z,18.60
2019-04-27T12:30:24.011Z,18.27
2019-04-27T12:32:56.398Z,18.33
2019-04-27T12:35:28.332Z,18.47
2019-04-27T12:38:00.505Z,18.23
2019-04-27T12:40:32.804Z,18.23
2019-04-27T12:43:05.072Z,20.33
2019-04-27T12:45:39.966Z,17.87
2019-04-27T12:48:11.184Z,19.40
2019-04-27T12:50:43.370Z,19.17
2019-04-27T12:53:24.223Z,19.20
2019-04-27T12:56:23.693Z,19.07
2019-04-27T12:59:06.029Z,19.50
2019-04-27T13:01:38.047Z,19.00
2019-04-27T13:04:10.146Z,18.03
2019-04-27T13:06:42.530Z,19.70
2019-04-27T13:09:22.880Z,19.30
2019-04-27T13:11:56.024Z,19.90
2019-04-27T13:14:27.997Z,19.20
2019-04-27T13:17:00.360Z,19.87
2019-04-27T13:19:32.632Z,19.57
2019-04-27T13:22:06.113Z,20.50
2019-04-27T13:24:38.206Z,18.77
2019-04-27T13:27:17.905Z,19.83
2019-04-27T13:29:50.005Z,18.87
2019-04-27T13:32:21.965Z,19.93
2019-04-27T13:34:54.140Z,19.03
2019-04-27T13:37:41.616Z,20.03
2019-04-27T13:40:16.794Z,18.67
2019-04-27T13:42:57.483Z,18.87
2019-04-27T13:45:59.697Z,18.00
2019-04-27T13:48:51.478Z,19.13
2019-04-27T13:51:43.135Z,20.20
2019-04-27T13:54:23.729Z,20.37
2019-04-27T13:56:48.962Z,22.03
2019-04-27T13:59:21.854Z,20.23
2019-04-27T14:01:54.024Z,22.53
2019-04-27T14:04:26.019Z,21.50
2019-04-27T14:06:58.988Z,21.20
2019-04-27T14:09:31.187Z,20.37
2019-04-27T14:12:13.818Z,18.83
2019-04-27T14:14:45.646Z,20.70
2019-04-27T14:17:19.316Z,21.80
2019-04-27T14:19:51.514Z,21.53
2019-04-27T14:22:23.617Z,19.53
2019-04-27T14:24:55.636Z,21.07
2019-04-27T14:27:30.890Z,20.73
2019-04-27T14:30:02.821Z,20.17
2019-04-27T14:32:34.970Z,19.50
2019-04-27T14:35:08.413Z,20.63
2019-04-27T14:37:40.800Z,19.33
2019-04-27T14:40:13.148Z,18.97
2019-04-27T14:42:45.317Z,23.60
2019-04-27T14:45:18.825Z,19.30
2019-04-27T14:47:51.133Z,19.57
2019-04-27T14:50:23.218Z,21.67
2019-04-27T14:52:55.233Z,20.30
2019-04-27T14:55:28.275Z,19.93
2019-04-27T14:58:01.238Z,19.17
2019-04-27T15:00:32.943Z,15.97
2019-04-27T15:03:05.359Z,17.73
2019-04-27T15:05:37.520Z,17.93
2019-04-27T15:08:10.095Z,18.37
2019-04-27T15:10:42.000Z,18.90
2019-04-27T15:13:14.002Z,19.73
2019-04-27T15:15:46.065Z,20.43
2019-04-27T15:18:19.695Z,18.30
2019-04-27T15:20:51.820Z,19.07
2019-04-27T15:23:26.632Z,19.40
2019-04-27T15:25:57.784Z,20.93
2019-04-27T15:28:32.188Z,19.77
2019-04-27T15:31:27.052Z,20.17
2019-04-27T15:34:23.445Z,21.00
2019-04-27T15:37:14.754Z,21.90
2019-04-27T15:40:12.768Z,21.13
2019-04-27T15:43:05.208Z,21.17
2019-04-27T15:45:38.918Z,23.03
2019-04-27T15:48:10.924Z,20.83
2019-04-27T15:50:42.870Z,21.10
2019-04-27T15:53:15.354Z,22.67
2019-04-27T15:55:47.360Z,20.83
2019-04-27T15:58:24.941Z,19.60
2019-04-27T16:00:56.547Z,21.00
2019-04-27T16:03:30.892Z,20.40
2019-04-27T16:06:03.165Z,20.37
2019-04-27T16:08:38.192Z,19.33
2019-04-27T16:11:09.917Z,19.20
2019-04-27T16:13:41.998Z,19.97
2019-04-27T16:16:14.696Z,19.43
2019-04-27T16:18:49.008Z,21.30
2019-04-27T16:21:20.935Z,23.10
2019-04-27T16:23:52.832Z,22.40
2019-04-27T16:26:32.438Z,23.10
2019-04-27T16:29:04.907Z,22.77
2019-04-27T16:31:38.462Z,25.73
2019-04-27T16:34:10.826Z,23.40
2019-04-27T16:36:43.687Z,21.73
2019-04-27T16:39:18.115Z,23.93
2019-04-27T16:41:50.302Z,22.33
2019-04-27T16:44:22.894Z,21.57
2019-04-27T16:46:55.052Z,21.67
2019-04-27T16:49:28.905Z,21.37
2019-04-27T16:52:01.032Z,20.63
2019-04-27T16:54:33.287Z,20.40
2019-04-27T16:57:05.593Z,22.70
2019-04-27T16:59:44.071Z,22.60
2019-04-27T17:02:11.266Z,21.53
2019-04-27T17:04:44.630Z,21.77
2019-04-27T17:07:18.875Z,22.57
2019-04-27T17:09:51.070Z,22.33
2019-04-27T17:12:28.640Z,22.67
2019-04-27T17:15:16.522Z,21.27
2019-04-27T17:18:09.978Z,21.67
2019-04-27T17:20:42.256Z,21.63
2019-04-27T17:23:17.907Z,22.60
2019-04-27T17:25:52.859Z,21.93
2019-04-27T17:28:24.029Z,22.27
2019-04-27T17:30:56.390Z,22.13
2019-04-27T17:33:31.286Z,21.80
2019-04-27T17:36:03.782Z,22.40
2019-04-27T17:38:35.696Z,21.90
2019-04-27T17:41:09.441Z,21.67
2019-04-27T17:43:42.586Z,21.27
2019-04-27T17:46:14.870Z,21.23
2019-04-27T17:48:48.462Z,22.43
2019-04-27T17:51:20.866Z,21.30
2019-04-27T17:53:52.964Z,21.27
2019-04-27T17:56:34.060Z,19.67
2019-04-27T17:58:59.099Z,19.23
2019-04-27T18:01:31.950Z,20.30
2019-04-27T18:04:06.446Z,18.73
2019-04-27T18:06:39.018Z,20.70
2019-04-27T18:09:14.935Z,19.77
2019-04-27T18:11:54.658Z,18.17
2019-04-27T18:14:28.605Z,18.23
2019-04-27T18:17:03.650Z,18.93
2019-04-27T18:19:57.629Z,21.13
2019-04-27T18:22:36.642Z,23.27
2019-04-27T18:25:10.331Z,21.43
2019-04-27T18:27:51.588Z,22.80
2019-04-27T18:30:33.787Z,22.60
2019-04-27T18:33:05.276Z,23.33
2019-04-27T18:35:38.698Z,23.93
2019-04-27T18:38:11.016Z,21.97
2019-04-27T18:40:43.197Z,22.40
2019-04-27T18:43:15.017Z,22.50
2019-04-27T18:45:48.509Z,23.57
2019-04-27T18:48:28.595Z,22.87
2019-04-27T18:51:13.150Z,22.20
2019-04-27T18:53:45.309Z,20.90
2019-04-27T18:56:19.055Z,21.70
2019-04-27T18:58:50.910Z,22.40
2019-04-27T19:01:23.242Z,23.23
2019-04-27T19:03:55.670Z,20.77
2019-04-27T19:06:28.902Z,20.07
2019-04-27T19:09:01.570Z,21.37
2019-04-27T19:11:33.776Z,22.10
2019-04-27T19:14:08.132Z,22.20
2019-04-27T19:16:39.853Z,20.17
2019-04-27T19:19:12.272Z,21.03
2019-04-27T19:21:44.960Z,20.97
2019-04-27T19:24:16.759Z,22.23
2019-04-27T19:27:18.054Z,21.70
2019-04-27T19:29:48.521Z,22.13
2019-04-27T19:32:20.989Z,22.43
2019-04-27T19:34:53.090Z,22.67
2019-04-27T19:37:25.058Z,23.33
2019-04-27T19:39:58.344Z,22.70
2019-04-27T19:42:38.626Z,22.13
2019-04-27T19:45:11.108Z,21.03
2019-04-27T19:47:43.028Z,21.37
2019-04-27T19:50:15.480Z,21.33
2019-04-27T19:52:47.717Z,19.97
2019-04-27T19:55:19.768Z,20.90
2019-04-27T19:57:51.848Z,21.23
2019-04-27T20:00:48.633Z,19.77
2019-04-27T20:03:28.876Z,20.27
2019-04-27T20:06:00.668Z,20.60
2019-04-27T20:08:34.949Z,22.37
2019-04-27T20:11:06.942Z,20.47
2019-04-27T20:13:38.786Z,20.77
2019-04-27T20:16:10.927Z,19.77
2019-04-27T20:18:43.312Z,19.30
2019-04-27T20:21:15.560Z,21.20
2019-04-27T20:23:47.646Z,23.87
2019-04-27T20:26:19.632Z,18.50
2019-04-27T20:28:51.441Z,18.97
2019-04-27T20:31:23.618Z,19.30
2019-04-27T20:33:55.692Z,18.90
2019-04-27T20:36:27.552Z,19.33
2019-04-27T20:39:01.184Z,19.47
2019-04-27T20:41:33.061Z,19.33
2019-04-27T20:44:06.294Z,19.80
2019-04-27T20:46:38.360Z,21.10
2019-04-27T20:49:21.501Z,21.63
2019-04-27T20:52:10.901Z,20.73
2019-04-27T20:54:43.330Z,22.57
2019-04-27T20:57:15.544Z,22.17
2019-04-27T20:59:47.557Z,23.17
2019-04-27T21:02:51.878Z,24.40
2019-04-27T21:05:42.686Z,21.80
2019-04-27T21:08:15.001Z,20.53
2019-04-27T21:10:47.024Z,23.90
2019-04-27T21:13:19.696Z,21.20
2019-04-27T21:15:51.782Z,20.10
2019-04-27T21:18:23.999Z,19.37
2019-04-27T21:20:55.694Z,18.97
2019-04-27T21:23:27.822Z,19.07
2019-04-27T21:26:07.648Z,19.13
2019-04-27T21:28:38.961Z,18.17
2019-04-27T21:31:12.685Z,16.60
2019-04-27T21:33:44.711Z,17.53
2019-04-27T21:36:16.734Z,16.80
2019-04-27T21:38:48.897Z,16.07
2019-04-27T21:41:22.701Z,16.57
2019-04-27T21:43:54.840Z,15.93
2019-04-27T21:46:27.056Z,15.10
2019-04-27T21:48:59.194Z,15.27
2019-04-27T21:51:32.594Z,15.50
2019-04-27T21:54:14.636Z,16.50
2019-04-27T21:56:46.486Z,14.17
2019-04-27T21:59:18.402Z,14.43
2019-04-27T22:01:52.250Z,14.57
2019-04-27T22:04:23.940Z,14.10
2019-04-27T22:06:55.885Z,14.53
2019-04-27T22:09:27.868Z,16.03
2019-04-27T22:12:00.508Z,14.43
2019-04-27T22:14:33.464Z,14.83
2019-04-27T22:17:05.772Z,15.87
2019-04-27T22:19:37.946Z,15.67
2019-04-27T22:22:21.063Z,15.00
2019-04-27T22:24:54.264Z,15.47
2019-04-27T22:27:26.046Z,16.73
2019-04-27T22:29:57.836Z,16.33
2019-04-27T22:32:30.659Z,15.83
2019-04-27T22:35:03.461Z,17.03
2019-04-27T22:37:35.232Z,16.70
2019-04-27T22:40:41.868Z,16.73
2019-04-27T22:43:43.645Z,16.97
2019-04-27T22:46:21.641Z,16.50
2019-04-27T22:48:53.540Z,16.63
2019-04-27T22:51:25.154Z,16.20
2019-04-27T22:53:57.075Z,16.93
2019-04-27T22:56:28.971Z,16.77
2019-04-27T22:59:07.381Z,17.37
2019-04-27T23:01:58.596Z,15.63
2019-04-27T23:04:38.798Z,18.30
2019-04-27T23:07:11.162Z,17.23
2019-04-27T23:09:43.027Z,17.00
2019-04-27T23:12:15.154Z,16.23
2019-04-27T23:14:47.012Z,15.27
2019-04-27T23:17:51.660Z,15.97
2019-04-27T23:20:23.544Z,16.00
2019-04-27T23:22:55.561Z,16.33
2019-04-27T23:25:27.133Z,16.30
2019-04-27T23:27:58.757Z,16.77
2019-04-27T23:30:54.024Z,16.50
2019-04-27T23:33:27.426Z,16.23
2019-04-27T23:35:59.365Z,17.30
2019-04-27T23:38:31.222Z,17.57
2019-04-27T23:41:03.084Z,17.30
2019-04-27T23:43:35.036Z,16.27
2019-04-27T23:46:06.622Z,17.37
2019-04-27T23:48:38.483Z,16.43
2019-04-27T23:51:22.778Z,16.03
2019-04-27T23:53:54.356Z,15.40
2019-04-27T23:56:26.015Z,15.17
2019-04-27T23:58:57.610Z,14.57
